CPX436 Details

Departure: Salt Lake City International Airport (KSLC)
Arrival: Sacramento International Airport (KSMF)
Route: DEZRT1 BAM LLC ANAHO SLMMR3


Current Weather Information
KSLC 221154Z 18009KT 10SM FEW060 BKN070 BKN090 07/01 A2994 RMK AO2 SLP120 70021 T00720011 10072 20067 55002 $
KSMF 221153Z 14009KT 10SM FEW060 08/07 A3013 RMK AO2 SLP201 7//// T00830067 10111 20072 56002